Time;durP1;ratioP1;P1;durP2;ratioP2;P2;SDS_P1;SDS_P2;PMS_P1;PMS_P2;Temp;Humidity;BMP_temperature;BMP_pressure;BME280_temperature;BME280_humidity;BME280_pressure;Samples;Min_cycle;Max_cycle;Signal;HPM_P1;HPM_P2
2021/04/15 00:00:16;;;;;;;4.00;2.90;;;22.70;32.20;;;;;;6201226;28;81477;-66
2021/04/15 00:03:17;;;;;;;5.20;2.95;;;22.70;32.00;;;;;;6194913;28;81658;-65
2021/04/15 00:06:17;;;;;;;5.60;2.65;;;22.70;32.10;;;;;;6202076;28;80771;-66
2021/04/15 00:09:18;;;;;;;6.18;2.70;;;22.70;32.00;;;;;;6204629;28;80835;-66
2021/04/15 00:12:18;;;;;;;4.22;2.80;;;22.70;32.00;;;;;;6192663;28;80916;-66
2021/04/15 00:15:19;;;;;;;3.88;3.05;;;22.70;32.00;;;;;;6193876;28;81545;-66
2021/04/15 00:18:19;;;;;;;4.10;3.13;;;22.70;31.90;;;;;;6208345;28;80872;-66
2021/04/15 00:21:20;;;;;;;3.33;2.63;;;22.70;32.20;;;;;;6200875;28;84320;-66
2021/04/15 00:24:20;;;;;;;3.92;2.90;;;22.70;32.10;;;;;;6169600;28;715662;-66
2021/04/15 00:27:21;;;;;;;3.95;3.25;;;22.70;32.00;;;;;;6198959;28;81554;-65
2021/04/15 00:30:21;;;;;;;3.97;2.67;;;22.70;32.00;;;;;;6191703;28;81302;-66
2021/04/15 00:33:22;;;;;;;4.28;3.05;;;22.70;32.10;;;;;;6202949;28;81026;-66
2021/04/15 00:36:22;;;;;;;2.70;1.90;;;22.70;32.10;;;;;;6191724;28;81111;-66
2021/04/15 00:39:23;;;;;;;2.83;2.28;;;22.70;32.10;;;;;;6222819;27;82509;-67
2021/04/15 00:42:23;;;;;;;3.85;2.58;;;22.70;32.40;;;;;;6204729;28;80747;-67
2021/04/15 00:45:24;;;;;;;3.38;2.35;;;22.70;31.90;;;;;;6194126;28;81415;-67
2021/04/15 00:48:24;;;;;;;3.50;2.17;;;22.70;32.00;;;;;;6217642;27;80680;-66
2021/04/15 00:51:25;;;;;;;4.13;2.83;;;22.70;31.90;;;;;;6197219;28;80476;-66
2021/04/15 00:54:25;;;;;;;3.33;2.30;;;22.70;32.00;;;;;;6195229;28;80676;-66
2021/04/15 00:57:26;;;;;;;3.17;2.20;;;22.70;31.80;;;;;;6207465;28;81677;-66
2021/04/15 01:00:27;;;;;;;4.30;2.20;;;22.70;31.90;;;;;;6200086;28;80410;-66
2021/04/15 01:03:28;;;;;;;3.00;2.08;;;22.60;31.90;;;;;;6197050;28;80948;-66
2021/04/15 01:06:28;;;;;;;2.80;2.30;;;22.70;32.80;;;;;;6195764;28;83293;-64
2021/04/15 01:09:29;;;;;;;3.40;2.20;;;22.70;32.10;;;;;;6205985;28;80753;-64
2021/04/15 01:12:29;;;;;;;4.10;2.65;;;22.70;32.00;;;;;;6189329;28;80705;-65
2021/04/15 01:15:30;;;;;;;3.10;2.33;;;22.60;31.90;;;;;;6224150;28;80296;-64
2021/04/15 01:18:30;;;;;;;3.40;2.30;;;22.70;32.10;;;;;;6202545;28;81428;-64
2021/04/15 01:21:31;;;;;;;3.88;2.42;;;22.60;31.90;;;;;;6202546;28;80323;-65
2021/04/15 01:24:31;;;;;;;4.18;2.75;;;22.70;32.10;;;;;;6219022;28;80516;-65
2021/04/15 01:27:32;;;;;;;2.63;2.20;;;22.70;31.90;;;;;;6218718;28;80821;-65
2021/04/15 01:30:32;;;;;;;4.68;2.50;;;22.60;31.80;;;;;;6198167;28;80875;-67
2021/04/15 01:33:33;;;;;;;4.45;2.10;;;22.60;32.00;;;;;;6196998;28;83781;-66
2021/04/15 01:36:34;;;;;;;2.78;2.17;;;22.60;32.00;;;;;;6194430;28;80566;-65
2021/04/15 01:39:34;;;;;;;2.97;2.60;;;22.60;31.90;;;;;;6209741;27;83726;-65
2021/04/15 01:42:35;;;;;;;3.83;2.10;;;22.60;31.90;;;;;;6186716;28;81112;-65
2021/04/15 01:45:35;;;;;;;3.95;2.45;;;22.60;31.90;;;;;;6215770;28;81147;-65
2021/04/15 01:48:36;;;;;;;4.53;2.10;;;22.70;32.10;;;;;;6213072;28;80680;-65
2021/04/15 01:51:36;;;;;;;3.45;2.33;;;22.70;32.00;;;;;;6215671;28;80714;-64
2021/04/15 01:54:37;;;;;;;3.80;2.28;;;22.60;32.00;;;;;;6190373;28;80882;-64
2021/04/15 01:57:38;;;;;;;2.80;2.20;;;22.60;32.00;;;;;;6220615;28;81293;-65
2021/04/15 02:00:38;;;;;;;3.38;2.55;;;22.60;32.60;;;;;;6219317;28;81024;-64
2021/04/15 02:03:39;;;;;;;4.25;2.53;;;22.60;32.10;;;;;;6220095;28;80724;-64
2021/04/15 02:06:39;;;;;;;3.22;2.22;;;22.60;31.90;;;;;;6218940;28;81684;-64
2021/04/15 02:09:40;;;;;;;3.60;2.70;;;22.60;32.00;;;;;;6215520;28;81685;-64
2021/04/15 02:12:40;;;;;;;3.40;2.25;;;22.60;31.90;;;;;;6219774;28;81739;-65
2021/04/15 02:15:45;;;;;;;3.25;2.00;;;22.60;31.90;;;;;;6237765;27;80511;-65
2021/04/15 02:18:45;;;;;;;2.55;2.20;;;22.60;32.10;;;;;;6221785;28;81885;-65
2021/04/15 02:21:46;;;;;;;5.20;2.60;;;22.60;31.90;;;;;;6221563;27;81353;-65
2021/04/15 02:24:46;;;;;;;3.35;2.13;;;22.60;31.80;;;;;;6214081;28;80840;-65
2021/04/15 02:27:47;;;;;;;4.13;2.40;;;22.60;31.90;;;;;;6198615;28;80866;-64
2021/04/15 02:30:47;;;;;;;3.65;2.60;;;22.60;31.90;;;;;;6194340;28;81270;-65
2021/04/15 02:33:48;;;;;;;2.95;2.30;;;22.60;31.80;;;;;;6195159;28;82132;-65
2021/04/15 02:36:48;;;;;;;2.97;2.28;;;22.60;32.20;;;;;;6217904;28;82657;-64
2021/04/15 02:39:50;;;;;;;4.13;2.35;;;22.60;31.70;;;;;;6198392;27;80303;-64
2021/04/15 02:42:50;;;;;;;3.65;2.67;;;22.60;32.00;;;;;;6196671;27;80421;-64
2021/04/15 02:45:51;;;;;;;3.15;2.20;;;22.60;31.80;;;;;;6185758;28;80993;-64
2021/04/15 02:48:51;;;;;;;3.42;2.20;;;22.60;31.80;;;;;;6216523;28;80793;-64
2021/04/15 02:51:52;;;;;;;4.47;2.50;;;22.60;31.80;;;;;;6188716;28;80554;-64
2021/04/15 02:54:52;;;;;;;3.08;2.15;;;22.60;32.00;;;;;;6204009;27;80713;-64
2021/04/15 02:57:53;;;;;;;4.57;2.47;;;22.60;31.80;;;;;;6213519;28;82227;-64
2021/04/15 03:00:53;;;;;;;3.72;2.30;;;22.60;32.00;;;;;;6214542;28;81716;-64
2021/04/15 03:03:54;;;;;;;3.97;2.13;;;22.60;31.80;;;;;;6201358;28;80853;-66
2021/04/15 03:06:54;;;;;;;4.18;2.67;;;22.60;31.80;;;;;;6205342;28;80390;-65
2021/04/15 03:09:55;;;;;;;3.22;1.95;;;22.60;31.70;;;;;;6187830;28;80725;-68
2021/04/15 03:12:55;;;;;;;5.05;2.58;;;22.50;31.90;;;;;;6198995;28;80643;-65
2021/04/15 03:15:56;;;;;;;2.85;1.95;;;22.60;32.40;;;;;;6204472;28;80785;-65
2021/04/15 03:18:56;;;;;;;2.90;2.17;;;22.60;32.30;;;;;;6208218;28;80718;-65
2021/04/15 03:21:57;;;;;;;3.22;2.10;;;22.60;32.40;;;;;;6213462;28;80993;-66
2021/04/15 03:24:57;;;;;;;3.30;2.22;;;22.60;32.20;;;;;;6190365;28;80555;-66
2021/04/15 03:27:58;;;;;;;4.07;2.15;;;22.70;32.20;;;;;;6205783;28;81910;-65
2021/04/15 03:30:59;;;;;;;3.30;2.08;;;22.70;31.90;;;;;;6217871;28;80464;-64
2021/04/15 03:33:59;;;;;;;3.92;2.33;;;22.70;31.40;;;;;;6225519;28;80730;-64
2021/04/15 03:37:00;;;;;;;3.05;2.35;;;22.70;31.50;;;;;;6198685;28;80816;-64
2021/04/15 03:40:00;;;;;;;3.75;2.50;;;22.70;31.50;;;;;;6203136;27;81640;-64
2021/04/15 03:43:01;;;;;;;2.95;2.13;;;22.70;31.40;;;;;;6208839;28;80637;-64
2021/04/15 03:46:01;;;;;;;4.07;2.42;;;22.70;31.40;;;;;;6219121;27;80456;-65
2021/04/15 03:49:02;;;;;;;4.95;2.58;;;22.70;31.40;;;;;;6214005;27;81013;-65
2021/04/15 03:52:02;;;;;;;3.28;2.40;;;22.80;32.20;;;;;;6194550;28;80723;-65
2021/04/15 03:55:03;;;;;;;3.30;2.38;;;22.80;31.60;;;;;;6198253;28;83293;-65
2021/04/15 03:58:03;;;;;;;3.78;2.40;;;22.80;31.60;;;;;;6204188;28;80753;-63
2021/04/15 04:01:04;;;;;;;4.75;2.40;;;22.80;31.60;;;;;;6203010;28;80667;-63
2021/04/15 04:04:04;;;;;;;4.35;2.55;;;22.80;31.30;;;;;;6200813;27;80727;-63
2021/04/15 04:07:05;;;;;;;6.10;2.58;;;22.90;31.50;;;;;;6198505;28;80950;-63
2021/04/15 04:10:05;;;;;;;5.63;3.08;;;22.80;31.90;;;;;;6202140;28;80437;-64
2021/04/15 04:13:06;;;;;;;5.40;3.25;;;22.90;32.40;;;;;;6195960;28;83509;-63
2021/04/15 04:16:06;;;;;;;6.10;3.40;;;22.90;32.60;;;;;;6204569;28;80503;-64
2021/04/15 04:19:07;;;;;;;2.80;2.33;;;22.90;32.30;;;;;;6216592;28;80810;-67
2021/04/15 04:22:07;;;;;;;5.07;2.83;;;22.90;32.10;;;;;;6197870;27;80636;-67
2021/04/15 04:25:08;;;;;;;4.13;2.53;;;22.90;32.70;;;;;;6223837;28;83478;-65
2021/04/15 04:28:08;;;;;;;3.83;2.80;;;23.00;33.00;;;;;;6221101;28;80987;-63
2021/04/15 04:31:09;;;;;;;4.25;3.15;;;23.00;33.10;;;;;;6211485;28;80829;-67
2021/04/15 04:34:09;;;;;;;7.93;3.10;;;23.00;37.10;;;;;;6208672;28;81610;-67
2021/04/15 04:37:10;;;;;;;9.60;3.30;;;23.10;39.50;;;;;;6219410;27;81486;-66
2021/04/15 04:40:10;;;;;;;8.68;3.10;;;23.10;40.40;;;;;;6217533;27;81092;-67
2021/04/15 04:43:11;;;;;;;5.53;3.08;;;23.10;43.50;;;;;;6214416;28;81734;-67
2021/04/15 04:46:12;;;;;;;5.47;2.70;;;23.20;43.50;;;;;;6196784;28;81500;-68
2021/04/15 04:49:12;;;;;;;4.15;2.92;;;23.20;40.10;;;;;;6194590;28;81437;-67
2021/04/15 04:52:13;;;;;;;4.60;3.30;;;23.20;39.60;;;;;;6194864;27;82358;-67
2021/04/15 04:55:13;;;;;;;8.07;3.25;;;23.10;36.70;;;;;;6195890;28;80753;-67
2021/04/15 04:58:14;;;;;;;5.07;3.10;;;23.10;37.00;;;;;;6201726;27;80953;-67
2021/04/15 05:01:14;;;;;;;5.22;2.92;;;23.10;36.10;;;;;;6204990;27;81445;-69
2021/04/15 05:04:15;;;;;;;5.60;2.83;;;23.10;36.70;;;;;;6212082;28;83225;-70
2021/04/15 05:07:15;;;;;;;4.55;3.17;;;23.10;36.20;;;;;;6194520;28;80404;-67
2021/04/15 05:10:16;;;;;;;6.13;3.00;;;23.10;36.20;;;;;;6200576;27;80647;-68
2021/04/15 05:13:17;;;;;;;6.85;3.28;;;23.10;35.70;;;;;;6194112;27;81166;-67
2021/04/15 05:16:17;;;;;;;5.35;2.97;;;23.10;35.60;;;;;;6193745;28;80623;-68
2021/04/15 05:19:18;;;;;;;4.20;3.15;;;23.10;36.00;;;;;;6193824;28;80811;-66
2021/04/15 05:22:19;;;;;;;6.15;3.72;;;23.10;36.10;;;;;;6206581;28;81094;-67
2021/04/15 05:25:20;;;;;;;7.70;3.30;;;23.10;35.90;;;;;;6207182;28;80778;-67
2021/04/15 05:28:21;;;;;;;5.80;3.58;;;23.10;35.80;;;;;;6195274;27;83164;-69
2021/04/15 05:31:21;;;;;;;4.53;2.95;;;23.10;35.60;;;;;;6206333;27;80593;-66
2021/04/15 05:34:22;;;;;;;7.53;3.80;;;23.10;35.70;;;;;;6213155;28;83695;-68
2021/04/15 05:37:22;;;;;;;6.88;3.88;;;23.10;35.40;;;;;;6198849;28;80538;-68
2021/04/15 05:40:23;;;;;;;8.50;3.38;;;23.10;35.20;;;;;;6197997;28;80570;-69
2021/04/15 05:43:23;;;;;;;5.70;3.03;;;23.10;35.50;;;;;;6198309;28;80976;-67
2021/04/15 05:46:24;;;;;;;3.90;2.83;;;23.10;35.60;;;;;;6204788;28;81613;-69
2021/04/15 05:49:25;;;;;;;5.18;3.35;;;23.20;35.70;;;;;;6213749;28;80735;-68
2021/04/15 05:52:25;;;;;;;5.35;3.15;;;23.10;35.60;;;;;;6195273;28;80661;-68
2021/04/15 05:55:26;;;;;;;8.00;2.97;;;23.10;35.60;;;;;;6198523;28;80934;-68
2021/04/15 05:58:26;;;;;;;8.45;3.47;;;23.10;35.40;;;;;;6196894;28;80674;-66
2021/04/15 06:01:27;;;;;;;3.97;2.97;;;23.20;35.10;;;;;;6194225;28;80368;-68
2021/04/15 06:04:27;;;;;;;6.28;3.65;;;23.20;34.60;;;;;;6200284;28;80486;-68
2021/04/15 06:07:28;;;;;;;5.68;3.55;;;23.20;35.70;;;;;;6208966;28;80525;-68
2021/04/15 06:10:28;;;;;;;5.07;3.22;;;23.20;34.50;;;;;;6201568;28;80583;-68
2021/04/15 06:13:29;;;;;;;9.52;3.72;;;23.10;34.20;;;;;;6214325;28;81156;-69
2021/04/15 06:16:29;;;;;;;9.25;3.50;;;23.10;35.20;;;;;;6201697;28;80461;-68
2021/04/15 06:19:30;;;;;;;6.78;3.60;;;23.00;35.60;;;;;;6187282;28;81116;-67
2021/04/15 06:22:30;;;;;;;4.88;3.03;;;23.00;35.90;;;;;;6189407;28;80450;-69
2021/04/15 06:25:31;;;;;;;8.52;3.63;;;23.00;35.40;;;;;;6193950;27;81058;-68
2021/04/15 06:28:31;;;;;;;18.10;4.63;;;23.00;34.90;;;;;;6206640;28;80807;-66
2021/04/15 06:31:32;;;;;;;8.82;4.10;;;23.00;35.00;;;;;;6219135;28;82029;-66
2021/04/15 06:34:32;;;;;;;7.97;3.40;;;23.00;34.80;;;;;;6223777;28;81336;-67
2021/04/15 06:37:33;;;;;;;9.90;3.65;;;23.00;34.50;;;;;;6217944;27;81716;-67
2021/04/15 06:40:33;;;;;;;14.75;4.47;;;23.00;35.50;;;;;;6210497;28;81028;-66
2021/04/15 06:43:34;;;;;;;8.98;3.50;;;23.00;35.50;;;;;;6212235;28;81297;-67
2021/04/15 06:46:35;;;;;;;8.68;3.92;;;23.00;35.10;;;;;;6202086;28;81831;-67
2021/04/15 06:49:35;;;;;;;9.10;3.92;;;23.00;34.50;;;;;;6206181;28;80678;-65
2021/04/15 06:52:36;;;;;;;12.77;4.80;;;23.00;35.00;;;;;;6201268;28;80665;-66
2021/04/15 06:55:36;;;;;;;15.68;4.97;;;22.90;35.20;;;;;;6202095;28;80784;-66
2021/04/15 06:58:37;;;;;;;18.02;4.95;;;23.00;35.30;;;;;;6194606;28;81107;-66
2021/04/15 07:01:38;;;;;;;15.18;4.88;;;23.00;35.70;;;;;;6196760;28;80574;-66
2021/04/15 07:04:38;;;;;;;19.75;5.25;;;23.00;36.00;;;;;;6195961;28;80617;-66
2021/04/15 07:07:39;;;;;;;17.75;4.78;;;23.00;36.70;;;;;;6194748;28;81477;-66
2021/04/15 07:10:41;;;;;;;15.90;4.35;;;23.00;36.80;;;;;;6195546;28;80764;-66
2021/04/15 07:13:41;;;;;;;14.95;4.85;;;23.00;37.40;;;;;;6202405;27;80824;-65
2021/04/15 07:16:42;;;;;;;11.60;4.53;;;23.00;37.20;;;;;;6195907;28;81888;-66
2021/04/15 07:19:43;;;;;;;17.60;5.20;;;23.00;37.80;;;;;;6202656;28;81171;-67
2021/04/15 07:22:43;;;;;;;19.50;6.72;;;23.00;37.90;;;;;;6208058;28;83281;-66
2021/04/15 07:25:44;;;;;;;18.27;8.25;;;23.00;39.50;;;;;;6205392;28;81609;-67
2021/04/15 07:28:44;;;;;;;27.23;14.07;;;23.00;38.80;;;;;;6199825;27;80494;-66
2021/04/15 07:31:45;;;;;;;24.25;15.57;;;23.00;38.30;;;;;;6191145;28;83380;-66
2021/04/15 07:34:45;;;;;;;54.78;32.58;;;23.10;37.90;;;;;;6197854;28;83157;-67
2021/04/15 07:37:46;;;;;;;62.22;38.47;;;23.10;39.60;;;;;;6195924;28;82868;-67
2021/04/15 07:40:46;;;;;;;79.72;46.90;;;23.10;40.50;;;;;;6198701;27;83340;-67
2021/04/15 07:43:47;;;;;;;91.55;58.65;;;23.20;41.60;;;;;;6206724;28;83565;-67
2021/04/15 07:46:47;;;;;;;82.05;51.70;;;23.20;42.80;;;;;;6219661;27;83302;-67
2021/04/15 07:49:48;;;;;;;107.35;72.38;;;23.20;41.90;;;;;;6198553;28;83880;-67
2021/04/15 07:52:49;;;;;;;96.78;71.13;;;23.20;41.60;;;;;;6186025;27;83988;-67
2021/04/15 07:55:49;;;;;;;93.28;64.07;;;23.20;41.40;;;;;;6197376;28;83555;-67
2021/04/15 07:58:50;;;;;;;83.55;57.92;;;23.20;42.00;;;;;;6189278;27;83538;-69
2021/04/15 08:01:50;;;;;;;79.13;50.47;;;23.20;41.80;;;;;;6196158;27;83604;-67
2021/04/15 08:04:51;;;;;;;86.97;56.45;;;23.20;39.80;;;;;;6197612;27;83725;-66
2021/04/15 08:07:52;;;;;;;78.03;50.65;;;23.20;39.70;;;;;;6204174;28;83278;-66
2021/04/15 08:10:52;;;;;;;76.75;52.95;;;23.20;39.10;;;;;;6209966;27;82953;-67
2021/04/15 08:13:53;;;;;;;76.65;48.97;;;23.20;39.10;;;;;;6197933;28;83629;-66
2021/04/15 08:16:53;;;;;;;60.67;42.15;;;23.20;38.60;;;;;;6205227;28;83260;-65
2021/04/15 08:19:54;;;;;;;58.85;41.72;;;23.30;37.80;;;;;;6223269;27;84695;-64
2021/04/15 08:22:57;;;;;;;52.70;36.95;;;23.30;37.10;;;;;;6201024;28;83941;-67
2021/04/15 08:25:58;;;;;;;51.28;33.80;;;23.20;36.30;;;;;;6190096;28;84117;-67
2021/04/15 08:28:59;;;;;;;47.85;32.60;;;23.30;36.40;;;;;;6196960;27;83322;-67
2021/04/15 08:32:00;;;;;;;49.97;33.88;;;23.20;36.00;;;;;;6195896;28;83620;-70
2021/04/15 08:35:01;;;;;;;44.33;30.52;;;23.30;36.00;;;;;;6207350;27;83987;-70
2021/04/15 08:38:01;;;;;;;40.53;28.50;;;23.30;35.90;;;;;;6207911;27;83052;-68
2021/04/15 08:41:02;;;;;;;41.25;26.85;;;23.30;35.80;;;;;;6192582;28;89031;-70
2021/04/15 08:44:02;;;;;;;37.08;25.13;;;23.30;36.20;;;;;;6204723;27;83707;-67
2021/04/15 08:47:03;;;;;;;36.33;25.80;;;23.30;36.20;;;;;;6202427;27;83361;-69
2021/04/15 08:50:03;;;;;;;31.10;22.33;;;23.30;35.80;;;;;;6197629;28;83107;-69
2021/04/15 08:53:04;;;;;;;30.35;22.73;;;23.40;35.50;;;;;;6195336;28;83595;-69
2021/04/15 08:56:05;;;;;;;31.67;20.58;;;23.40;35.70;;;;;;6187817;28;85936;-67
2021/04/15 08:59:05;;;;;;;32.67;19.48;;;23.40;35.30;;;;;;6211455;27;85969;-69
2021/04/15 09:02:06;;;;;;;31.77;18.92;;;23.40;35.80;;;;;;6208454;28;84540;-68
2021/04/15 09:05:06;;;;;;;23.15;16.63;;;23.40;34.90;;;;;;6202667;28;83587;-68
2021/04/15 09:08:07;;;;;;;25.73;16.95;;;23.40;34.90;;;;;;6194192;28;85390;-67
2021/04/15 09:11:07;;;;;;;22.48;16.17;;;23.40;34.90;;;;;;6196758;28;82989;-68
2021/04/15 09:14:08;;;;;;;25.65;16.40;;;23.40;35.10;;;;;;6189683;28;83602;-68
2021/04/15 09:17:08;;;;;;;19.75;15.30;;;23.40;34.60;;;;;;6194371;27;84044;-67
2021/04/15 09:20:09;;;;;;;21.40;14.52;;;23.40;34.40;;;;;;6210974;28;83882;-68
2021/04/15 09:23:09;;;;;;;17.98;13.10;;;23.40;34.80;;;;;;6219665;28;84289;-68
2021/04/15 09:26:10;;;;;;;22.17;13.52;;;23.40;34.60;;;;;;6202304;27;84989;-67
2021/04/15 09:29:12;;;;;;;20.02;12.65;;;23.40;35.20;;;;;;6192753;28;84118;-69
2021/04/15 09:32:12;;;;;;;17.27;11.32;;;23.40;34.60;;;;;;6207065;28;86966;-67
2021/04/15 09:35:13;;;;;;;14.82;10.82;;;23.40;35.40;;;;;;6214614;28;83625;-71
2021/04/15 09:38:14;;;;;;;14.95;10.85;;;23.30;36.10;;;;;;6211942;28;83962;-68
2021/04/15 09:41:14;;;;;;;13.80;9.85;;;23.40;36.10;;;;;;6195961;27;83692;-75
2021/04/15 09:44:15;;;;;;;14.55;9.90;;;23.30;35.80;;;;;;6194570;28;83934;-67
2021/04/15 09:47:15;;;;;;;12.70;9.50;;;23.40;35.30;;;;;;6213457;28;82283;-68
2021/04/15 09:50:19;;;;;;;14.48;9.02;;;23.40;36.30;;;;;;6219943;27;80832;-68
2021/04/15 09:53:19;;;;;;;15.27;8.63;;;23.40;36.90;;;;;;6213004;27;81708;-69
2021/04/15 09:56:20;;;;;;;11.52;7.85;;;23.40;36.70;;;;;;6196161;28;80880;-69
2021/04/15 09:59:20;;;;;;;10.73;7.78;;;23.40;36.70;;;;;;6210368;28;80853;-68
2021/04/15 10:02:22;;;;;;;12.25;8.65;;;23.40;37.60;;;;;;6220216;28;81617;-68
2021/04/15 10:05:22;;;;;;;13.68;7.60;;;23.40;37.00;;;;;;6225800;28;81139;-69
2021/04/15 10:08:23;;;;;;;11.30;7.47;;;23.40;35.70;;;;;;6221189;27;80806;-68
2021/04/15 10:11:23;;;;;;;10.20;6.68;;;23.40;35.90;;;;;;6209752;27;81827;-69
2021/04/15 10:14:24;;;;;;;8.30;6.50;;;23.40;35.10;;;;;;6203251;28;80782;-68
2021/04/15 10:17:24;;;;;;;8.32;6.40;;;23.30;34.90;;;;;;6207651;28;80684;-71
2021/04/15 10:20:26;;;;;;;8.02;5.78;;;23.30;35.50;;;;;;6220030;27;82915;-69
2021/04/15 10:23:28;;;;;;;9.45;6.68;;;23.30;36.10;;;;;;6218765;28;83793;-67
2021/04/15 10:26:29;;;;;;;10.13;6.30;;;23.30;35.70;;;;;;6202262;28;81852;-67
2021/04/15 10:29:30;;;;;;;7.15;5.35;;;23.30;35.60;;;;;;6215254;28;80192;-69
2021/04/15 10:32:30;;;;;;;15.95;5.47;;;23.30;35.70;;;;;;6212418;27;81080;-70
2021/04/15 10:35:31;;;;;;;10.55;5.22;;;23.30;35.90;;;;;;6196966;27;82762;-69
2021/04/15 10:38:31;;;;;;;10.77;5.70;;;23.30;36.50;;;;;;6206191;28;80665;-69
2021/04/15 10:41:32;;;;;;;7.88;4.90;;;23.30;35.80;;;;;;6183939;28;80664;-68
2021/04/15 10:44:32;;;;;;;6.85;4.13;;;23.30;36.90;;;;;;6194656;28;81030;-67
2021/04/15 10:47:33;;;;;;;7.72;5.82;;;23.30;35.60;;;;;;6194406;28;81010;-67
2021/04/15 10:50:33;;;;;;;7.50;4.57;;;23.20;35.70;;;;;;6198104;28;80327;-66
2021/04/15 10:53:34;;;;;;;6.30;4.38;;;23.30;36.50;;;;;;6211850;28;81310;-67
2021/04/15 10:56:37;;;;;;;6.28;4.20;;;23.30;36.00;;;;;;6205367;27;81414;-68
2021/04/15 10:59:38;;;;;;;6.88;4.63;;;23.20;35.90;;;;;;6198502;27;80538;-66
2021/04/15 11:02:38;;;;;;;6.93;4.13;;;23.20;35.30;;;;;;6209971;28;81201;-69
2021/04/15 11:05:42;;;;;;;7.40;4.22;;;23.20;35.40;;;;;;6204324;28;81275;-68
2021/04/15 11:08:42;;;;;;;7.40;4.85;;;23.20;35.00;;;;;;6194809;27;81704;-66
2021/04/15 11:11:43;;;;;;;7.72;4.63;;;23.20;34.40;;;;;;6201658;28;81604;-67
2021/04/15 11:14:43;;;;;;;6.15;4.10;;;23.20;34.30;;;;;;6206397;28;81721;-68
2021/04/15 11:17:44;;;;;;;5.68;3.80;;;23.20;34.20;;;;;;6179850;28;83602;-68
2021/04/15 11:20:44;;;;;;;6.47;4.00;;;23.20;34.40;;;;;;6205748;28;80618;-68
2021/04/15 11:23:45;;;;;;;5.03;3.80;;;23.20;34.30;;;;;;6211506;28;80524;-68
2021/04/15 11:26:46;;;;;;;6.65;4.25;;;23.10;34.00;;;;;;6201740;28;80810;-69
2021/04/15 11:29:46;;;;;;;5.43;3.50;;;23.20;34.70;;;;;;6231852;28;81785;-68
2021/04/15 11:32:47;;;;;;;6.05;4.07;;;23.20;34.70;;;;;;6208484;27;80328;-67
2021/04/15 11:35:47;;;;;;;4.78;3.53;;;23.20;34.20;;;;;;6205839;28;81119;-68
2021/04/15 11:38:48;;;;;;;5.88;3.55;;;23.20;34.20;;;;;;6230683;27;83258;-68
2021/04/15 11:41:48;;;;;;;4.10;3.15;;;23.20;33.90;;;;;;6214534;27;81351;-68
2021/04/15 11:44:49;;;;;;;6.68;4.32;;;23.20;33.80;;;;;;6219588;27;82708;-67
2021/04/15 11:47:49;;;;;;;5.75;3.65;;;23.20;34.20;;;;;;6212961;27;80931;-67
2021/04/15 11:50:50;;;;;;;5.93;3.72;;;23.20;34.50;;;;;;6220641;27;83089;-67
2021/04/15 11:53:51;;;;;;;6.82;3.63;;;23.20;34.10;;;;;;6219027;28;80868;-69
2021/04/15 11:56:51;;;;;;;8.50;3.90;;;23.20;33.60;;;;;;6219763;27;81447;-68
2021/04/15 11:59:52;;;;;;;6.85;3.95;;;23.20;33.90;;;;;;6222875;27;80511;-68
2021/04/15 12:02:52;;;;;;;5.55;3.70;;;23.20;33.90;;;;;;6203712;28;81264;-66
2021/04/15 12:05:53;;;;;;;7.68;3.40;;;23.20;33.90;;;;;;6195534;28;80691;-68
2021/04/15 12:08:53;;;;;;;6.60;3.72;;;23.20;34.30;;;;;;6210970;28;81361;-67
2021/04/15 12:11:54;;;;;;;5.70;3.47;;;23.10;32.80;;;;;;6211904;28;81892;-68
2021/04/15 12:14:54;;;;;;;6.10;3.63;;;23.20;32.70;;;;;;6199795;28;84285;-68
2021/04/15 12:17:55;;;;;;;4.95;3.28;;;23.20;32.70;;;;;;6221404;28;81557;-68
2021/04/15 12:20:55;;;;;;;6.13;3.40;;;23.10;32.50;;;;;;6206178;27;80995;-66
2021/04/15 12:23:56;;;;;;;4.78;3.33;;;23.20;33.40;;;;;;6198923;28;80932;-66
2021/04/15 12:26:56;;;;;;;5.15;3.25;;;23.20;32.90;;;;;;6197265;28;81190;-66
2021/04/15 12:29:57;;;;;;;5.28;3.83;;;23.20;32.70;;;;;;6213500;28;80846;-64
2021/04/15 12:32:58;;;;;;;4.43;3.45;;;23.20;32.60;;;;;;6223890;28;81813;-67
2021/04/15 12:35:58;;;;;;;3.40;2.72;;;23.20;32.50;;;;;;6202916;28;80837;-68
2021/04/15 12:38:59;;;;;;;5.75;3.33;;;23.20;32.30;;;;;;6197096;28;81638;-66
2021/04/15 12:41:59;;;;;;;4.78;3.55;;;23.30;32.20;;;;;;6185380;28;81128;-67
2021/04/15 12:45:00;;;;;;;4.82;3.35;;;23.20;32.10;;;;;;6196779;28;80899;-67
2021/04/15 12:48:00;;;;;;;5.80;3.60;;;23.30;31.90;;;;;;6194910;27;80589;-68
2021/04/15 12:51:01;;;;;;;4.63;2.80;;;23.30;31.90;;;;;;6198257;27;80786;-68
2021/04/15 12:54:01;;;;;;;4.70;3.00;;;23.30;32.00;;;;;;6199748;27;80902;-69
2021/04/15 12:57:02;;;;;;;5.18;3.72;;;23.30;32.10;;;;;;6199344;28;80744;-69
2021/04/15 13:00:03;;;;;;;5.28;3.63;;;23.30;32.20;;;;;;6217403;28;81829;-68
2021/04/15 13:03:03;;;;;;;5.10;3.30;;;23.40;32.20;;;;;;6227337;28;81007;-67
2021/04/15 13:06:04;;;;;;;7.35;3.55;;;23.40;32.20;;;;;;6190731;28;80685;-67
2021/04/15 13:09:04;;;;;;;7.07;3.95;;;23.40;32.20;;;;;;6201638;28;91255;-67
2021/04/15 13:12:05;;;;;;;9.93;4.70;;;23.40;32.30;;;;;;6220052;28;80920;-66
2021/04/15 13:15:05;;;;;;;11.18;4.70;;;23.40;32.30;;;;;;6222502;27;80842;-68
2021/04/15 13:18:06;;;;;;;15.23;5.10;;;23.40;32.40;;;;;;6203859;28;80941;-66
2021/04/15 13:21:07;;;;;;;10.25;4.57;;;23.40;32.50;;;;;;6201752;28;80997;-68
2021/04/15 13:24:07;;;;;;;9.07;4.22;;;23.40;32.50;;;;;;6195389;27;80816;-67
2021/04/15 13:27:08;;;;;;;9.38;4.43;;;23.40;32.90;;;;;;6209291;28;81374;-68
2021/04/15 13:30:09;;;;;;;7.50;4.25;;;23.40;32.70;;;;;;6218313;28;80502;-68
2021/04/15 13:33:10;;;;;;;10.30;4.30;;;23.40;32.50;;;;;;6221199;27;84564;-67
2021/04/15 13:36:11;;;;;;;7.72;4.13;;;23.40;32.60;;;;;;6204648;27;80681;-68
2021/04/15 13:39:14;;;;;;;8.05;3.90;;;23.40;32.70;;;;;;6215039;27;80334;-67
2021/04/15 13:42:15;;;;;;;10.18;4.97;;;23.40;32.90;;;;;;6217893;28;81477;-67
2021/04/15 13:45:15;;;;;;;9.23;3.88;;;23.40;32.90;;;;;;6199703;28;81236;-67
2021/04/15 13:48:16;;;;;;;7.05;4.05;;;23.40;32.90;;;;;;6219310;28;80997;-67
2021/04/15 13:51:17;;;;;;;8.57;3.95;;;23.40;33.00;;;;;;6202021;28;81950;-67
2021/04/15 13:54:25;;;;;;;8.57;4.00;;;23.40;33.20;;;;;;6193419;27;80708;-67
2021/04/15 13:57:26;;;;;;;10.50;4.35;;;23.40;33.30;;;;;;6223138;28;81363;-68
2021/04/15 14:00:27;;;;;;;5.93;4.03;;;23.40;33.40;;;;;;6194164;27;80300;-67
2021/04/15 14:03:27;;;;;;;8.80;3.75;;;23.30;33.40;;;;;;6218571;28;80740;-69
2021/04/15 14:06:28;;;;;;;9.02;3.95;;;23.30;33.20;;;;;;6198939;27;81308;-66
2021/04/15 14:09:28;;;;;;;6.18;3.70;;;23.30;32.80;;;;;;6203780;28;81865;-67
2021/04/15 14:12:29;;;;;;;7.45;3.45;;;23.40;32.70;;;;;;6204107;27;81540;-66
2021/04/15 14:15:29;;;;;;;6.13;3.20;;;23.40;32.80;;;;;;6201700;28;89622;-67
2021/04/15 14:18:30;;;;;;;6.82;3.72;;;23.40;32.50;;;;;;6202049;28;81330;-67
2021/04/15 14:21:31;;;;;;;6.40;3.42;;;23.40;32.40;;;;;;6204402;28;80907;-66
2021/04/15 14:24:32;;;;;;;5.95;3.15;;;23.40;32.80;;;;;;6197771;28;80724;-65
2021/04/15 14:27:32;;;;;;;7.18;3.30;;;23.40;32.70;;;;;;6199460;28;80791;-65
2021/04/15 14:30:33;;;;;;;6.57;4.13;;;23.40;32.70;;;;;;6197062;28;80874;-64
2021/04/15 14:33:33;;;;;;;8.52;3.58;;;23.40;33.10;;;;;;6192685;27;80858;-66
2021/04/15 14:36:34;;;;;;;4.82;3.33;;;23.40;32.70;;;;;;6201442;28;81262;-67
2021/04/15 14:39:34;;;;;;;5.82;3.50;;;23.40;32.80;;;;;;6196433;28;80571;-66
2021/04/15 14:42:35;;;;;;;4.65;3.30;;;23.30;33.00;;;;;;6191883;28;81364;-66
2021/04/15 14:45:35;;;;;;;3.42;2.80;;;23.40;32.60;;;;;;6196925;27;81188;-66
2021/04/15 14:48:36;;;;;;;5.50;3.22;;;23.30;32.70;;;;;;6221345;28;83380;-66
2021/04/15 14:51:36;;;;;;;3.40;3.10;;;23.30;33.50;;;;;;6195462;28;81696;-66
2021/04/15 14:54:37;;;;;;;8.15;3.47;;;23.20;33.50;;;;;;6226213;28;80708;-66
2021/04/15 14:57:38;;;;;;;5.28;3.35;;;23.20;32.80;;;;;;6205460;28;82559;-66
2021/04/15 15:00:38;;;;;;;6.05;3.75;;;23.20;33.20;;;;;;6203364;28;81579;-66
2021/04/15 15:03:39;;;;;;;6.07;3.00;;;23.20;33.10;;;;;;6190086;28;81339;-66
2021/04/15 15:06:39;;;;;;;4.55;3.10;;;23.20;32.80;;;;;;6226427;28;80701;-67
2021/04/15 15:09:40;;;;;;;6.80;3.40;;;23.20;33.50;;;;;;6189594;28;81716;-66
2021/04/15 15:12:41;;;;;;;5.40;3.20;;;23.20;33.50;;;;;;6220519;28;81720;-66
2021/04/15 15:15:41;;;;;;;6.93;4.15;;;23.10;33.30;;;;;;6200826;27;81745;-66
2021/04/15 15:18:42;;;;;;;3.70;2.88;;;23.10;33.10;;;;;;6203233;28;80391;-67
2021/04/15 15:21:42;;;;;;;5.70;3.90;;;23.10;33.50;;;;;;6219594;27;82261;-67
2021/04/15 15:24:43;;;;;;;4.40;2.95;;;23.10;33.40;;;;;;6195835;28;80852;-66
2021/04/15 15:27:44;;;;;;;4.70;3.10;;;23.10;33.10;;;;;;6235827;28;80635;-68
2021/04/15 15:30:44;;;;;;;5.43;3.10;;;23.10;33.80;;;;;;6200325;28;86147;-67
2021/04/15 15:33:46;;;;;;;7.45;3.38;;;23.10;33.30;;;;;;6222183;27;80870;-67